SUMU/MVD METAR and TAF weather

Enter ICAO airport designator
Station Type Date Time Source
SUMU METAR 2021/09/24 06:00 UTC NOAA

SUMU 240600Z 13007KT 9999 SCT006 SCT070 13/11 Q1022 TEMPO BR


Station Type Date Time Source
SUMU Decoded METAR 2021/09/24 06:00 UTC NOAA

Carrasco, Uruguay (SUMU) 34-50S 056-00W 32M
Sep 24, 2021 - 02:00 AM EDT / 2021.09.24 0600 UTC
Wind: from the SE (130 degrees) at 8 MPH (7 KT):0
Visibility: greater than 7 mile(s):0
Sky conditions: partly cloudy
Temperature: 55 F (13 C)
Dew Point: 51 F (11 C)
Relative Humidity: 87%
Pressure (altimeter): 30.18 in. Hg (1022 hPa)
ob: SUMU 240600Z 13007KT 9999 SCT006 SCT070 13/11 Q1022 TEMPO BR
cycle: 6

Station Type Date Time Source
SUMU TAF 2021/09/24 06:30 UTC NOAA

TAF SUMU 240530Z 2406/2506 12010KT 9999 SCT020 BKN070 TX17/2418Z TN11/2410Z
TEMPO 2406/2412 12005KT 3000 BR BKN010

Example: see airport list